Etusivu
METAR-TAF:

METAR-TAF

Lentoasemat :

Oulu, Suomi

Oulun lentoasema

Leveyspiiri: 64-56N, Pituuspiiri: 025-22E, korkeus merenpinnasta: 12 m

Tämänhetkinen sää

Tämä raportti tehtiin 20 minuuttia sitten, kello 06.20 UTC
Tuuli 6 kn idästä, vaihdellen idän/koillisen ja idän/kaakon välillä
Lämpötila 11°C
Kosteus 76%
Ilmanpaine 1010 hPa
Näkyvyys 10 km tai enemmän

METAR: EFOU 240620Z AUTO 09006KT 060V120 9999 FEW015/// OVC066/// 11/07 Q1010

Aika: 09:40 (06:40 UTC)

Sääennuste

Tämä raportti tehtiin 1 tunti ja 2 minuuttia sitten, kello 05.38 UTC
Ennuste voimassa 24. päivästä klo 06 UTC - 25. päivään klo 06 UTC
Tuuli 4 kn idästä
Näkyvyys 10 km tai enemmän
Muutamia pilviä 1000 ft:n korkeudessa
Hajonneita pilviä 2000 ft:n korkeudessa
Ajoittain
24. päivästä klo 21 UTC - 25. päivään klo 06 UTC
Hajonneita pilviä 1000 ft:n korkeudessa

TAF: EFOU 240538Z 2406/2506 09004KT 9999 FEW010 BKN020 TEMPO 2421/2506 BKN010

Säähavainnot ja -ennusteet yli 4000 lentoasemalta (METAR- ja TAF-raportit).

Käytössä olevat sääasemat on merkitty karttaan keltaisilla ja punaisilla pisteillä.

Aseta hiiri pisteen päälle nähdäksesi sääaseman nimen.

Klikkaa sitten nähdäksesi säähavainnot ja -ennusteet.

Kartan vaihtaminen: klikkaa mustalla rastilla varustettuja vihreitä pisteitä, niin voit zoomata sisään; viivalla varustettua vihreää pistettä, niin voit zoomata ulos tai vihreitä nuolia, niin pääset viereisille kartoille.


METAR-TAF: